Time;durP1;ratioP1;P1;durP2;ratioP2;P2;SDS_P1;SDS_P2;PMS_P1;PMS_P2;Temp;Humidity;BMP_temperature;BMP_pressure;BME280_temperature;BME280_humidity;BME280_pressure;Samples;Min_cycle;Max_cycle;Signal;HPM_P1;HPM_P2
2023/07/09 00:02:27;;;;;;;5.78;2.42;;;;;;;20.67;38.89;94306.09;5050096;28;20041;-72
2023/07/09 00:04:53;;;;;;;3.83;2.15;;;;;;;20.63;39.07;94308.72;5051906;28;20040;-72
2023/07/09 00:07:24;;;;;;;7.40;2.47;;;;;;;20.62;39.54;94309.91;5049442;28;20438;-72
2023/07/09 00:09:50;;;;;;;7.47;2.03;;;;;;;20.47;39.47;94308.91;5051196;28;20085;-72
2023/07/09 00:12:17;;;;;;;6.50;2.65;;;;;;;20.47;39.64;94302.72;5050395;28;20041;-72
2023/07/09 00:14:43;;;;;;;5.22;2.58;;;;;;;20.44;39.32;94298.81;5054382;28;20062;-72
2023/07/09 00:17:33;;;;;;;4.68;2.42;;;;;;;20.36;39.79;94297.16;5057211;28;20105;-72
2023/07/09 00:19:59;;;;;;;4.90;2.40;;;;;;;20.50;39.37;94302.78;5057949;28;20084;-72
2023/07/09 00:22:26;;;;;;;4.22;2.28;;;;;;;20.38;39.46;94304.91;5051933;28;20119;-71
2023/07/09 00:24:56;;;;;;;6.45;2.38;;;;;;;20.28;39.46;94292.00;5058106;28;20772;-72
2023/07/09 00:27:25;;;;;;;4.78;3.05;;;;;;;20.34;39.54;94301.34;5057918;28;20036;-71
2023/07/09 00:29:52;;;;;;;3.13;2.22;;;;;;;20.41;39.45;94296.84;5058689;28;20056;-72
2023/07/09 00:32:22;;;;;;;6.32;2.40;;;;;;;20.43;39.74;94289.16;5057365;28;20029;-72
2023/07/09 00:34:51;;;;;;;2.88;1.88;;;;;;;20.54;39.41;94295.50;5055190;28;20490;-71
2023/07/09 00:37:19;;;;;;;6.50;2.50;;;;;;;20.51;39.36;94285.41;5050926;28;20136;-73
2023/07/09 00:39:45;;;;;;;4.82;2.15;;;;;;;20.45;39.44;94288.78;5056354;28;20557;-71
2023/07/09 00:42:17;;;;;;;4.20;2.42;;;;;;;20.40;39.53;94297.97;5050491;28;20511;-72
2023/07/09 00:44:51;;;;;;;5.07;3.22;;;;;;;20.30;39.53;94298.59;5057194;28;20567;-72
2023/07/09 00:47:27;;;;;;;5.93;2.53;;;;;;;20.18;39.44;94274.50;5057892;28;20037;-71
2023/07/09 00:50:03;;;;;;;5.05;2.72;;;;;;;20.11;39.49;94285.16;5056581;28;20614;-73
2023/07/09 00:52:35;;;;;;;5.78;2.50;;;;;;;20.21;39.89;94281.88;5058400;28;20024;-72
2023/07/09 00:55:07;;;;;;;7.50;2.60;;;;;;;20.19;39.40;94281.44;5056780;28;20050;-71
2023/07/09 00:57:33;;;;;;;2.92;2.22;;;;;;;20.00;39.59;94289.59;5057995;28;20054;-71
2023/07/09 01:00:12;;;;;;;7.78;2.80;;;;;;;20.11;40.02;94283.22;5057374;28;20042;-71
2023/07/09 01:02:43;;;;;;;5.53;3.20;;;;;;;20.11;39.58;94274.34;5057208;28;20044;-71
2023/07/09 01:05:10;;;;;;;4.07;2.30;;;;;;;20.23;39.49;94279.59;5058600;28;20037;-72
2023/07/09 01:07:36;;;;;;;7.22;2.55;;;;;;;20.21;39.37;94273.78;5056515;28;20505;-72
2023/07/09 01:10:02;;;;;;;5.32;2.20;;;;;;;20.13;39.48;94272.88;5057664;28;20099;-72
2023/07/09 01:12:30;;;;;;;7.97;2.17;;;;;;;20.17;39.42;94271.03;5056912;28;20145;-72
2023/07/09 01:14:58;;;;;;;4.65;2.35;;;;;;;20.13;39.35;94272.06;5057610;28;20411;-72
2023/07/09 01:17:27;;;;;;;2.85;2.30;;;;;;;20.17;39.50;94270.25;5057205;28;20043;-71
2023/07/09 01:19:54;;;;;;;6.22;2.58;;;;;;;19.96;39.50;94269.88;5056328;28;20123;-73
2023/07/09 01:22:21;;;;;;;5.63;2.35;;;;;;;19.90;39.75;94266.69;5057843;28;20036;-72
2023/07/09 01:24:47;;;;;;;3.92;2.53;;;;;;;19.96;40.18;94275.25;5057793;28;20298;-71
2023/07/09 01:27:13;;;;;;;5.63;2.30;;;;;;;19.70;40.31;94265.97;5054143;28;20044;-71
2023/07/09 01:29:39;;;;;;;6.38;2.13;;;;;;;19.74;40.36;94266.81;5055009;28;20029;-71
2023/07/09 01:32:06;;;;;;;7.60;2.40;;;;;;;19.61;40.77;94268.13;5054450;28;20222;-72
2023/07/09 01:34:32;;;;;;;5.78;2.50;;;;;;;19.65;40.66;94263.56;5052992;28;20408;-71
2023/07/09 01:36:58;;;;;;;6.88;2.03;;;;;;;19.73;40.08;94261.78;5053218;28;20075;-72
2023/07/09 01:39:25;;;;;;;6.32;2.33;;;;;;;19.75;40.02;94265.66;5055645;28;20521;-72
2023/07/09 01:41:51;;;;;;;4.03;2.15;;;;;;;19.78;40.28;94256.09;5051503;28;20053;-72
2023/07/09 01:44:16;;;;;;;5.20;2.40;;;;;;;19.82;40.18;94266.94;5053836;28;20035;-72
2023/07/09 01:46:42;;;;;;;6.32;2.83;;;;;;;19.68;40.16;94257.47;5053401;28;20079;-72
2023/07/09 01:49:08;;;;;;;3.13;1.92;;;;;;;19.62;40.23;94264.28;5055212;28;20430;-71
2023/07/09 01:51:36;;;;;;;3.63;2.03;;;;;;;19.46;40.34;94265.53;5051761;28;20535;-71
2023/07/09 01:54:02;;;;;;;4.30;2.58;;;;;;;19.69;40.32;94275.22;5055411;28;20101;-72
2023/07/09 01:56:28;;;;;;;5.13;2.50;;;;;;;19.70;40.06;94271.34;5052469;28;20098;-72
2023/07/09 01:59:01;;;;;;;4.00;2.28;;;;;;;19.69;40.17;94269.81;5053118;28;20045;-71
2023/07/09 02:01:29;;;;;;;5.65;2.88;;;;;;;19.72;40.23;94282.59;5053024;28;20033;-72
2023/07/09 02:03:54;;;;;;;8.27;2.38;;;;;;;19.74;39.91;94260.66;5051799;28;20052;-72
2023/07/09 02:06:20;;;;;;;2.80;2.15;;;;;;;19.74;40.26;94269.53;5052192;28;20044;-71
2023/07/09 02:08:45;;;;;;;5.15;2.55;;;;;;;19.69;40.24;94269.81;5054317;28;20094;-72
2023/07/09 02:11:11;;;;;;;6.55;2.70;;;;;;;19.72;40.28;94271.78;5053446;28;20048;-72
2023/07/09 02:13:36;;;;;;;6.45;2.88;;;;;;;19.71;40.14;94272.94;5051809;28;20017;-71
2023/07/09 02:16:02;;;;;;;5.60;2.50;;;;;;;19.78;39.74;94266.09;5051685;28;20017;-71
2023/07/09 02:18:29;;;;;;;4.07;2.40;;;;;;;19.91;39.64;94276.34;5054373;28;20058;-72
2023/07/09 02:20:54;;;;;;;6.40;2.83;;;;;;;19.61;39.76;94261.94;5050603;28;20504;-72
2023/07/09 02:23:19;;;;;;;3.13;2.40;;;;;;;19.68;39.85;94273.66;5053643;28;20044;-72
2023/07/09 02:25:45;;;;;;;6.57;2.95;;;;;;;19.71;39.78;94274.84;5052104;28;20523;-71
2023/07/09 02:28:10;;;;;;;5.82;2.20;;;;;;;19.57;39.91;94278.06;5055117;28;20037;-72
2023/07/09 02:30:35;;;;;;;4.50;2.33;;;;;;;19.66;40.04;94281.31;5050985;28;20033;-72
2023/07/09 02:33:01;;;;;;;3.03;2.25;;;;;;;19.64;40.25;94283.59;5054575;28;20040;-72
2023/07/09 02:35:26;;;;;;;4.20;2.40;;;;;;;19.57;39.51;94269.97;5052231;28;20039;-71
2023/07/09 02:37:51;;;;;;;10.95;1.98;;;;;;;19.64;40.00;94286.31;5053830;28;20036;-72
2023/07/09 02:40:17;;;;;;;3.78;2.20;;;;;;;19.67;39.94;94280.19;5051022;28;20501;-72
2023/07/09 02:42:42;;;;;;;3.70;1.95;;;;;;;19.85;39.77;94287.81;5053259;28;20438;-72
2023/07/09 02:45:09;;;;;;;4.93;2.30;;;;;;;19.96;39.65;94292.25;5051587;28;20487;-72
2023/07/09 02:47:34;;;;;;;3.67;2.20;;;;;;;19.81;39.40;94281.56;5052300;28;20049;-72
2023/07/09 02:50:00;;;;;;;2.97;2.33;;;;;;;19.83;39.41;94303.59;5051741;28;20067;-72
2023/07/09 02:52:26;;;;;;;3.83;2.20;;;;;;;19.84;39.81;94286.25;5053967;28;20613;-72
2023/07/09 02:54:52;;;;;;;6.95;2.40;;;;;;;19.93;39.72;94303.00;5051415;28;20028;-72
2023/07/09 02:57:17;;;;;;;5.25;2.08;;;;;;;19.92;39.59;94298.72;5050277;28;20520;-72
2023/07/09 02:59:43;;;;;;;7.45;2.40;;;;;;;19.74;39.53;94304.59;5050529;28;20626;-72
2023/07/09 03:02:08;;;;;;;4.38;2.75;;;;;;;19.83;39.89;94304.38;5053440;28;20041;-72
2023/07/09 03:04:34;;;;;;;6.32;1.98;;;;;;;19.96;39.74;94310.34;5050746;28;20112;-71
2023/07/09 03:06:59;;;;;;;5.30;1.95;;;;;;;19.86;39.46;94310.94;5053063;28;20024;-71
2023/07/09 03:09:25;;;;;;;8.02;2.75;;;;;;;19.85;39.87;94314.81;5050599;28;20037;-71
2023/07/09 03:11:51;;;;;;;9.18;2.75;;;;;;;19.83;39.65;94307.06;5053310;28;20041;-72
2023/07/09 03:14:16;;;;;;;7.47;2.38;;;;;;;19.90;39.84;94317.97;5051178;28;20431;-72
2023/07/09 03:16:42;;;;;;;8.35;2.88;;;;;;;19.87;39.72;94307.13;5052285;28;20447;-71
2023/07/09 03:19:07;;;;;;;5.75;2.22;;;;;;;19.92;39.58;94314.91;5052226;28;20028;-72
2023/07/09 03:21:33;;;;;;;3.88;2.28;;;;;;;19.99;39.87;94315.84;5052321;28;20576;-72
2023/07/09 03:23:59;;;;;;;3.95;2.00;;;;;;;19.95;39.62;94322.28;5049874;28;20029;-71
2023/07/09 03:26:27;;;;;;;6.88;2.72;;;;;;;19.92;40.03;94318.41;5052996;28;20040;-71
2023/07/09 03:28:54;;;;;;;5.22;1.90;;;;;;;19.88;40.43;94319.47;5051882;28;20726;-72
2023/07/09 03:31:20;;;;;;;7.75;2.50;;;;;;;19.97;40.07;94322.72;5052544;28;20035;-72
2023/07/09 03:33:50;;;;;;;4.32;2.30;;;;;;;19.95;39.85;94320.38;5051076;28;20035;-72
2023/07/09 03:36:16;;;;;;;6.78;2.63;;;;;;;19.98;39.97;94321.59;5052414;28;20052;-72
2023/07/09 03:38:41;;;;;;;7.47;2.50;;;;;;;19.83;39.91;94312.47;5050932;28;20033;-71
2023/07/09 03:41:07;;;;;;;4.22;2.50;;;;;;;19.96;40.10;94315.75;5053328;28;20033;-72
2023/07/09 03:43:32;;;;;;;8.13;2.83;;;;;;;20.03;40.49;94326.69;5066428;28;21148;-71
2023/07/09 03:45:58;;;;;;;4.20;2.58;;;;;;;20.09;40.46;94319.84;5051740;28;20025;-72
2023/07/09 03:48:23;;;;;;;8.15;2.78;;;;;;;20.11;40.43;94322.97;5051660;28;20056;-72
2023/07/09 03:50:49;;;;;;;7.05;2.65;;;;;;;20.10;40.44;94310.59;5051278;28;20037;-72
2023/07/09 03:53:15;;;;;;;5.53;2.60;;;;;;;20.15;40.69;94323.78;5049393;28;20037;-71
2023/07/09 03:55:41;;;;;;;4.75;2.40;;;;;;;20.28;40.43;94327.91;5050517;28;20028;-72
2023/07/09 03:58:06;;;;;;;4.63;2.20;;;;;;;20.25;40.33;94322.44;5050856;28;20082;-71
2023/07/09 04:00:33;;;;;;;4.82;2.10;;;;;;;20.28;40.75;94325.22;5051336;28;20587;-72
2023/07/09 04:02:59;;;;;;;3.75;2.10;;;;;;;20.29;41.24;94326.75;5049466;28;21139;-72
2023/07/09 04:05:25;;;;;;;4.50;2.47;;;;;;;20.26;40.82;94330.19;5052142;28;20127;-72
2023/07/09 04:07:51;;;;;;;3.80;2.33;;;;;;;20.38;40.85;94330.00;5048809;28;20379;-71
2023/07/09 04:10:17;;;;;;;5.65;2.25;;;;;;;20.38;40.36;94337.31;5051185;28;20119;-71
2023/07/09 04:12:43;;;;;;;3.92;2.30;;;;;;;20.32;40.45;94333.34;5053172;28;20025;-71
2023/07/09 04:15:09;;;;;;;4.35;2.65;;;;;;;20.42;40.86;94332.75;5050984;28;20036;-72
2023/07/09 04:17:35;;;;;;;6.03;2.35;;;;;;;20.36;41.13;94324.16;5048612;28;20045;-71
2023/07/09 04:20:05;;;;;;;2.83;2.50;;;;;;;20.55;40.79;94336.81;5051045;28;20039;-71
2023/07/09 04:22:31;;;;;;;4.60;2.50;;;;;;;20.34;40.42;94336.47;5042356;28;20028;-72
2023/07/09 04:24:57;;;;;;;4.63;3.35;;;;;;;20.22;41.93;94339.38;5051551;28;20041;-71
2023/07/09 04:27:27;;;;;;;8.10;2.63;;;;;;;20.39;41.66;94349.66;5051481;28;20462;-72
2023/07/09 04:29:52;;;;;;;6.03;2.45;;;;;;;20.36;40.82;94339.59;5043307;28;20265;-72
2023/07/09 04:32:18;;;;;;;3.38;2.22;;;;;;;20.42;40.98;94340.84;5051136;28;20025;-71
2023/07/09 04:34:44;;;;;;;5.10;2.55;;;;;;;20.39;41.78;94353.16;5050990;28;21162;-72
2023/07/09 04:37:11;;;;;;;6.55;2.00;;;;;;;20.53;42.02;94356.06;5052439;28;20162;-72
2023/07/09 04:39:37;;;;;;;4.70;2.17;;;;;;;20.66;41.61;94358.59;5064742;28;20471;-72
2023/07/09 04:42:03;;;;;;;7.43;2.92;;;;;;;20.66;41.65;94362.06;5049997;28;20128;-72
2023/07/09 04:44:28;;;;;;;8.63;2.58;;;;;;;20.55;40.66;94353.78;5049774;28;20134;-73
2023/07/09 04:46:54;;;;;;;7.68;2.60;;;;;;;20.66;41.05;94358.59;5050432;28;20068;-72
2023/07/09 04:49:19;;;;;;;9.95;3.00;;;;;;;20.82;41.19;94356.50;5050910;28;20020;-71
2023/07/09 04:51:45;;;;;;;7.75;2.47;;;;;;;20.75;39.89;94351.00;5048798;28;20578;-71
2023/07/09 04:54:10;;;;;;;5.63;2.88;;;;;;;20.75;40.13;94354.47;5053631;28;20119;-72
2023/07/09 04:56:37;;;;;;;7.45;3.00;;;;;;;20.89;41.35;94356.63;5047444;28;20035;-72
2023/07/09 04:59:02;;;;;;;6.72;3.00;;;;;;;20.55;40.53;94348.38;5051527;28;20032;-71
2023/07/09 05:01:28;;;;;;;5.15;2.50;;;;;;;20.73;40.50;94351.34;5051504;28;20043;-71
2023/07/09 05:03:54;;;;;;;7.97;2.58;;;;;;;20.59;40.40;94360.03;5053140;28;20037;-72
2023/07/09 05:06:21;;;;;;;4.35;2.53;;;;;;;20.78;40.36;94361.84;5053766;28;20060;-72
2023/07/09 05:08:48;;;;;;;4.88;2.42;;;;;;;20.60;40.75;94350.78;5052665;28;20465;-71
2023/07/09 05:11:14;;;;;;;5.80;2.78;;;;;;;20.69;40.36;94365.94;5051804;28;20094;-72
2023/07/09 05:13:40;;;;;;;6.72;2.38;;;;;;;20.55;40.30;94364.59;5052738;28;20056;-72
2023/07/09 05:16:05;;;;;;;7.32;2.63;;;;;;;20.44;40.21;94343.97;5052822;28;21353;-71
2023/07/09 05:18:30;;;;;;;4.50;2.58;;;;;;;20.49;40.95;94376.84;5055414;28;20144;-72
2023/07/09 05:20:56;;;;;;;5.20;2.72;;;;;;;20.47;41.27;94383.78;5051962;28;20511;-71
2023/07/09 05:23:24;;;;;;;6.45;3.08;;;;;;;20.59;41.67;94375.47;5055847;28;20040;-72
2023/07/09 05:25:49;;;;;;;4.40;2.90;;;;;;;20.32;41.33;94377.38;5050978;28;20961;-72
2023/07/09 05:28:15;;;;;;;5.28;2.58;;;;;;;20.50;41.18;94377.63;5054810;28;20032;-71
2023/07/09 05:30:43;;;;;;;4.40;2.60;;;;;;;20.26;41.36;94343.69;5053753;28;20494;-71
2023/07/09 05:33:09;;;;;;;11.95;3.45;;;;;;;20.39;41.36;94376.69;5054096;28;20451;-71
2023/07/09 05:35:34;;;;;;;3.85;2.53;;;;;;;20.43;41.96;94367.50;5053261;28;20062;-71
2023/07/09 05:38:00;;;;;;;4.38;2.40;;;;;;;20.57;41.81;94378.53;5053874;28;20044;-71
2023/07/09 05:40:25;;;;;;;5.70;2.97;;;;;;;20.28;41.26;94346.81;5054511;28;20024;-72
2023/07/09 05:42:51;;;;;;;6.20;2.88;;;;;;;20.31;41.62;94364.22;5051970;28;20039;-72
2023/07/09 05:45:16;;;;;;;6.38;2.67;;;;;;;20.38;42.13;94362.41;5052378;28;20086;-72
2023/07/09 05:47:42;;;;;;;9.30;3.17;;;;;;;20.46;41.78;94361.38;5053994;28;20040;-71
2023/07/09 05:50:08;;;;;;;7.68;2.63;;;;;;;20.49;42.52;94371.44;5053095;28;20114;-72
2023/07/09 05:52:33;;;;;;;3.47;2.40;;;;;;;20.48;42.45;94379.94;5054812;28;20057;-72
2023/07/09 05:54:59;;;;;;;7.82;2.90;;;;;;;20.46;42.93;94377.59;5052968;28;20028;-72
2023/07/09 05:57:25;;;;;;;5.82;2.80;;;;;;;20.46;42.54;94366.78;5054870;28;20048;-72
2023/07/09 05:59:51;;;;;;;6.95;3.20;;;;;;;20.68;42.93;94372.53;5052500;28;20044;-72
2023/07/09 06:02:19;;;;;;;6.40;2.88;;;;;;;20.53;41.66;94371.53;5053809;28;20079;-72
2023/07/09 06:04:45;;;;;;;6.95;2.83;;;;;;;20.43;41.68;94356.72;5052466;28;20031;-71
2023/07/09 06:07:13;;;;;;;4.40;2.72;;;;;;;20.66;41.91;94372.88;5053402;28;20020;-71
2023/07/09 06:09:39;;;;;;;5.20;3.20;;;;;;;20.28;42.46;94368.44;5053667;28;20036;-71
2023/07/09 06:12:05;;;;;;;8.38;2.67;;;;;;;20.51;42.89;94365.69;5053634;28;20032;-71
2023/07/09 06:14:31;;;;;;;6.40;3.05;;;;;;;20.57;42.43;94370.44;5053875;28;20036;-71
2023/07/09 06:16:57;;;;;;;9.25;2.90;;;;;;;20.51;41.64;94366.47;5054450;28;20124;-71
2023/07/09 06:19:23;;;;;;;5.57;2.72;;;;;;;20.29;42.30;94361.84;5051024;28;20029;-72
2023/07/09 06:21:48;;;;;;;3.88;3.00;;;;;;;20.44;42.41;94362.88;5054330;28;20054;-72
2023/07/09 06:24:14;;;;;;;9.10;2.90;;;;;;;20.52;42.33;94329.44;5052446;28;20147;-73
2023/07/09 06:26:39;;;;;;;4.25;2.72;;;;;;;20.77;42.21;94346.00;5051846;28;20491;-72
2023/07/09 06:29:05;;;;;;;7.13;2.45;;;;;;;20.65;41.61;94333.47;5054927;28;20032;-72
2023/07/09 06:31:30;;;;;;;8.75;2.85;;;;;;;20.89;41.67;94362.03;5055300;28;20032;-72
2023/07/09 06:33:56;;;;;;;7.38;3.55;;;;;;;20.88;41.70;94358.56;5051604;28;20025;-72
2023/07/09 06:36:21;;;;;;;4.00;2.45;;;;;;;20.82;41.57;94351.09;5054385;28;20036;-72
2023/07/09 06:38:46;;;;;;;4.10;2.90;;;;;;;20.92;42.19;94359.38;5052390;28;20946;-72
2023/07/09 06:41:16;;;;;;;6.90;2.88;;;;;;;21.00;41.90;94347.53;5052213;28;20389;-72
2023/07/09 06:43:41;;;;;;;3.95;2.90;;;;;;;21.12;41.88;94351.91;5051697;28;20021;-72
2023/07/09 06:46:10;;;;;;;5.72;2.83;;;;;;;21.09;42.50;94343.75;5056012;28;20016;-72
2023/07/09 06:48:36;;;;;;;7.15;2.65;;;;;;;21.09;41.79;94354.59;5045546;28;20054;-73
2023/07/09 06:51:01;;;;;;;5.88;3.10;;;;;;;20.91;41.21;94351.66;5054594;28;20040;-72
2023/07/09 06:53:28;;;;;;;8.48;3.10;;;;;;;20.83;41.45;94320.22;5052764;28;20544;-73
2023/07/09 06:55:58;;;;;;;5.30;2.67;;;;;;;21.13;41.53;94356.19;5052919;28;20035;-73
2023/07/09 06:58:27;;;;;;;5.95;2.72;;;;;;;20.93;41.54;94314.19;5051829;28;20024;-72
2023/07/09 07:00:54;;;;;;;5.22;2.78;;;;;;;21.16;41.83;94355.47;5046315;28;20846;-73
2023/07/09 07:03:23;;;;;;;5.00;2.90;;;;;;;21.22;42.33;94353.97;5052926;28;20052;-74
2023/07/09 07:05:50;;;;;;;6.45;3.38;;;;;;;21.41;42.16;94353.81;5052108;28;20038;-73
2023/07/09 07:08:17;;;;;;;4.78;2.90;;;;;;;21.44;41.64;94353.13;5051277;28;20037;-73
2023/07/09 07:10:45;;;;;;;7.20;2.58;;;;;;;21.32;40.79;94353.34;5051761;28;20024;-72
2023/07/09 07:13:10;;;;;;;5.78;2.45;;;;;;;21.10;41.35;94348.81;5053482;28;20013;-72
2023/07/09 07:15:39;;;;;;;4.53;2.47;;;;;;;21.16;42.03;94355.47;5052018;28;20579;-73
2023/07/09 07:18:05;;;;;;;3.95;2.97;;;;;;;20.85;41.46;94361.19;5051964;28;20036;-74
2023/07/09 07:20:31;;;;;;;4.20;2.75;;;;;;;20.95;40.66;94347.84;5053082;28;20044;-73
2023/07/09 07:22:57;;;;;;;5.57;2.63;;;;;;;20.66;41.57;94351.25;5051036;28;20452;-72
2023/07/09 07:25:24;;;;;;;4.63;2.83;;;;;;;20.77;41.55;94351.41;5053201;28;20905;-72
2023/07/09 07:27:49;;;;;;;6.35;2.90;;;;;;;21.02;42.32;94341.75;5054325;28;20059;-73
2023/07/09 07:30:15;;;;;;;6.13;2.75;;;;;;;21.09;40.70;94351.88;5050038;28;20033;-72
2023/07/09 07:32:47;;;;;;;3.60;2.75;;;;;;;21.04;40.87;94342.16;5051587;28;20718;-73
2023/07/09 07:35:13;;;;;;;7.70;2.90;;;;;;;21.21;41.58;94352.44;5052471;28;20036;-73
2023/07/09 07:37:40;;;;;;;10.68;3.03;;;;;;;21.34;41.28;94347.56;5052099;28;20017;-71
2023/07/09 07:40:06;;;;;;;5.63;3.03;;;;;;;21.38;41.19;94335.63;5052254;28;20488;-72
2023/07/09 07:42:32;;;;;;;5.05;2.45;;;;;;;21.44;41.54;94326.06;5052175;28;20094;-73
2023/07/09 07:44:58;;;;;;;5.00;2.92;;;;;;;21.66;41.74;94331.72;5051005;28;20146;-72
2023/07/09 07:47:23;;;;;;;2.97;2.40;;;;;;;21.46;42.03;94342.69;5053319;28;20060;-72
2023/07/09 07:49:48;;;;;;;3.55;2.55;;;;;;;21.39;41.96;94320.97;5051570;28;20444;-72
2023/07/09 07:52:14;;;;;;;6.15;2.70;;;;;;;21.83;41.85;94347.38;5052742;28;20031;-73
2023/07/09 07:54:39;;;;;;;5.22;3.20;;;;;;;21.80;40.41;94332.63;5051958;28;20024;-72
2023/07/09 07:57:05;;;;;;;5.28;2.47;;;;;;;21.68;40.10;94327.50;5052265;28;20028;-72
2023/07/09 07:59:34;;;;;;;4.10;2.90;;;;;;;21.69;41.08;94339.09;5050522;28;20025;-72
2023/07/09 08:02:00;;;;;;;5.97;2.97;;;;;;;21.79;41.04;94335.72;5053077;28;20722;-72
2023/07/09 08:04:25;;;;;;;5.63;2.90;;;;;;;21.54;41.61;94331.94;5053376;28;20086;-71
2023/07/09 08:06:52;;;;;;;5.57;2.90;;;;;;;21.56;41.36;94318.88;5052258;28;20048;-72
2023/07/09 08:09:18;;;;;;;4.07;2.67;;;;;;;21.33;41.89;94327.06;5049341;28;20037;-73
2023/07/09 08:11:43;;;;;;;7.15;2.67;;;;;;;21.26;42.12;94324.28;5052206;28;20081;-72
2023/07/09 08:14:10;;;;;;;6.35;3.83;;;;;;;21.39;41.40;94333.72;5049225;28;20043;-72
2023/07/09 08:16:35;;;;;;;5.22;2.60;;;;;;;21.23;41.97;94339.31;5051306;28;20079;-74
2023/07/09 08:19:01;;;;;;;5.80;3.47;;;;;;;21.34;42.82;94313.19;5050126;28;20025;-71
2023/07/09 08:21:26;;;;;;;4.03;2.63;;;;;;;21.42;42.96;94331.03;5046704;28;20433;-74
2023/07/09 08:23:52;;;;;;;9.23;3.33;;;;;;;21.40;42.49;94327.94;5050593;28;20396;-71
2023/07/09 08:26:17;;;;;;;4.00;2.88;;;;;;;21.48;42.77;94319.88;5052410;28;20033;-71
2023/07/09 08:28:43;;;;;;;4.75;2.58;;;;;;;21.55;41.55;94325.44;5051598;28;20484;-71
2023/07/09 08:31:09;;;;;;;5.72;3.00;;;;;;;21.42;42.10;94312.09;5054795;28;20020;-72
2023/07/09 08:33:34;;;;;;;6.40;2.70;;;;;;;21.54;41.49;94319.19;5047872;28;20021;-72
2023/07/09 08:36:00;;;;;;;5.85;3.15;;;;;;;21.59;41.94;94318.13;5054391;28;20615;-73
2023/07/09 08:38:25;;;;;;;4.07;2.80;;;;;;;21.52;42.42;94307.16;5055500;28;20048;-72
2023/07/09 08:41:07;;;;;;;6.53;3.30;;;;;;;21.68;41.88;94321.31;5054447;28;20828;-72
2023/07/09 08:43:53;;;;;;;3.42;3.05;;;;;;;21.83;41.66;94326.50;5055286;28;20485;-72
2023/07/09 08:46:32;;;;;;;5.97;3.10;;;;;;;21.87;41.34;94329.22;5053844;28;20522;-72
2023/07/09 08:48:59;;;;;;;6.25;3.42;;;;;;;21.72;41.35;94320.19;5054548;28;20044;-72
2023/07/09 08:51:41;;;;;;;6.50;3.80;;;;;;;21.79;41.75;94316.78;5055723;28;20119;-72
2023/07/09 08:54:29;;;;;;;5.18;3.03;;;;;;;21.90;41.80;94323.09;5056672;28;20029;-71
2023/07/09 08:57:04;;;;;;;4.68;2.63;;;;;;;21.67;41.21;94325.94;5054020;28;20037;-72
2023/07/09 08:59:30;;;;;;;5.10;2.80;;;;;;;21.79;42.22;94316.78;5054839;28;20041;-71
2023/07/09 09:01:59;;;;;;;6.95;2.80;;;;;;;22.07;42.50;94322.47;5054088;28;20224;-72
2023/07/09 09:04:28;;;;;;;9.18;3.42;;;;;;;22.24;42.93;94316.44;5056159;28;20512;-72
2023/07/09 09:07:06;;;;;;;4.72;3.42;;;;;;;22.23;40.28;94325.75;5057029;28;20150;-72
2023/07/09 09:09:40;;;;;;;4.22;3.28;;;;;;;22.12;40.80;94327.53;5051198;28;20131;-72
2023/07/09 09:12:17;;;;;;;29.23;3.55;;;;;;;22.12;41.24;94329.47;5051610;28;20032;-72
2023/07/09 09:14:46;;;;;;;6.78;4.15;;;;;;;22.07;41.66;94321.69;5054727;28;20516;-71
2023/07/09 09:17:16;;;;;;;4.88;3.28;;;;;;;22.30;41.64;94325.00;5054221;28;20037;-73
2023/07/09 09:19:59;;;;;;;5.85;3.67;;;;;;;22.19;40.73;94311.34;5070461;28;20171;-72
2023/07/09 09:22:39;;;;;;;5.47;3.20;;;;;;;22.39;41.67;94322.00;5056067;28;20024;-72
2023/07/09 09:25:21;;;;;;;5.82;3.55;;;;;;;22.48;40.85;94325.16;5055027;28;20508;-73
2023/07/09 09:27:46;;;;;;;5.95;3.30;;;;;;;22.55;40.01;94331.41;5054188;28;20037;-72
2023/07/09 09:30:15;;;;;;;3.88;3.20;;;;;;;22.37;40.72;94308.03;5054830;28;20045;-72
2023/07/09 09:32:47;;;;;;;6.32;3.65;;;;;;;22.40;41.07;94307.28;5054364;28;20052;-73
2023/07/09 09:35:15;;;;;;;4.47;3.47;;;;;;;22.49;41.04;94318.56;5054068;28;20081;-71
2023/07/09 09:37:49;;;;;;;7.00;3.53;;;;;;;22.64;41.27;94317.50;5053675;28;20040;-72
2023/07/09 09:40:17;;;;;;;6.35;3.30;;;;;;;22.70;40.56;94324.13;5053521;28;20017;-72
2023/07/09 09:42:43;;;;;;;5.68;3.38;;;;;;;22.82;41.47;94313.00;5053718;28;20044;-72
2023/07/09 09:45:15;;;;;;;5.57;3.33;;;;;;;22.71;40.41;94317.56;5053547;28;20406;-72
2023/07/09 09:47:40;;;;;;;6.15;3.40;;;;;;;22.70;40.53;94318.72;5051854;28;20507;-72
2023/07/09 09:50:06;;;;;;;5.40;3.20;;;;;;;22.48;39.55;94298.06;5052270;28;20127;-73
2023/07/09 09:52:34;;;;;;;4.35;3.00;;;;;;;22.56;40.27;94305.84;5056262;28;20024;-73
2023/07/09 09:55:15;;;;;;;3.08;2.63;;;;;;;22.54;40.25;94291.88;5053397;28;20036;-72
2023/07/09 09:57:48;;;;;;;5.93;3.58;;;;;;;22.56;40.09;94305.06;5054170;28;20642;-72
2023/07/09 10:00:16;;;;;;;5.75;3.45;;;;;;;22.57;39.72;94295.78;5054130;28;20045;-71
2023/07/09 10:02:42;;;;;;;4.55;3.67;;;;;;;22.67;39.84;94305.94;5054119;28;20063;-72
2023/07/09 10:05:25;;;;;;;4.90;2.97;;;;;;;22.76;39.83;94298.22;5055237;28;20789;-72
2023/07/09 10:08:11;;;;;;;6.65;2.65;;;;;;;22.78;39.50;94290.47;5052427;28;20020;-73
2023/07/09 10:10:39;;;;;;;16.02;3.95;;;;;;;22.85;39.10;94295.97;5052787;28;20805;-71
2023/07/09 10:13:22;;;;;;;6.88;3.08;;;;;;;22.50;39.36;94258.56;5054614;28;20571;-71
2023/07/09 10:16:09;;;;;;;5.25;3.05;;;;;;;22.92;39.09;94293.31;5052358;28;20032;-72
2023/07/09 10:18:50;;;;;;;5.80;2.85;;;;;;;22.83;39.41;94287.41;5053040;28;20074;-72
2023/07/09 10:21:33;;;;;;;5.30;3.42;;;;;;;22.92;39.20;94285.19;5051902;28;20511;-72
2023/07/09 10:24:05;;;;;;;3.38;3.05;;;;;;;23.08;40.07;94288.34;5052050;28;20197;-71
2023/07/09 10:26:34;;;;;;;3.42;3.05;;;;;;;22.97;38.29;94273.97;5054681;28;20040;-72
2023/07/09 10:29:07;;;;;;;7.35;3.03;;;;;;;22.97;38.32;94286.75;5053908;28;20527;-72
2023/07/09 10:31:39;;;;;;;4.13;3.03;;;;;;;23.04;38.35;94287.56;5053990;28;20028;-72
2023/07/09 10:34:23;;;;;;;3.78;2.65;;;;;;;23.05;39.15;94289.13;5052580;28;20130;-72
2023/07/09 10:37:07;;;;;;;4.30;3.38;;;;;;;23.08;38.61;94285.63;5054533;28;20043;-72
2023/07/09 10:39:47;;;;;;;6.05;3.25;;;;;;;22.91;38.86;94280.91;5053803;28;20067;-71
2023/07/09 10:42:35;;;;;;;5.93;2.65;;;;;;;22.70;39.16;94278.81;5051631;28;20043;-71
2023/07/09 10:45:09;;;;;;;5.05;3.45;;;;;;;22.60;39.70;94276.81;5051773;28;20036;-73
2023/07/09 10:47:39;;;;;;;4.68;2.97;;;;;;;22.74;39.80;94273.41;5052643;28;20093;-72
2023/07/09 10:50:11;;;;;;;3.83;3.05;;;;;;;22.74;39.24;94266.06;5051775;28;20079;-71
2023/07/09 10:52:41;;;;;;;5.32;3.28;;;;;;;22.93;39.31;94272.38;5052155;28;20115;-71
2023/07/09 10:55:14;;;;;;;2.72;2.42;;;;;;;22.93;39.00;94275.88;5054183;28;21289;-71
2023/07/09 10:57:54;;;;;;;4.32;2.95;;;;;;;22.98;38.74;94278.22;5052915;28;20155;-71
2023/07/09 11:00:22;;;;;;;5.15;2.65;;;;;;;23.04;37.92;94271.28;5051217;28;20053;-73
2023/07/09 11:02:58;;;;;;;2.72;2.30;;;;;;;22.99;37.59;94268.94;5052864;28;20063;-74
2023/07/09 11:05:23;;;;;;;5.30;2.83;;;;;;;23.05;37.66;94266.63;5054895;28;20033;-73
2023/07/09 11:08:01;;;;;;;6.78;2.88;;;;;;;23.17;35.54;94276.38;5049934;28;20090;-72
2023/07/09 11:10:31;;;;;;;5.15;3.03;;;;;;;23.23;36.81;94278.31;5055123;28;20494;-72
2023/07/09 11:13:05;;;;;;;5.93;3.30;;;;;;;23.36;36.72;94282.28;5052807;28;20524;-72
2023/07/09 11:15:35;;;;;;;6.10;2.60;;;;;;;23.41;36.58;94283.84;5052935;28;20737;-71
2023/07/09 11:18:05;;;;;;;4.47;2.47;;;;;;;23.46;36.38;94270.66;5051752;28;20043;-73
2023/07/09 11:20:41;;;;;;;3.30;2.45;;;;;;;23.52;36.54;94273.78;5051721;28;20576;-73
2023/07/09 11:23:19;;;;;;;4.63;3.05;;;;;;;23.42;35.91;94274.50;5052673;28;20460;-72
2023/07/09 11:26:01;;;;;;;5.07;2.65;;;;;;;23.53;36.88;94272.63;5051054;28;20025;-70
2023/07/09 11:28:34;;;;;;;3.75;2.70;;;;;;;23.46;37.07;94270.66;5053652;28;20032;-74
2023/07/09 11:31:14;;;;;;;3.95;2.63;;;;;;;23.61;36.68;94271.50;5053984;28;20248;-73
2023/07/09 11:33:47;;;;;;;3.42;2.60;;;;;;;23.56;35.51;94269.16;5050212;28;20040;-73
2023/07/09 11:36:23;;;;;;;4.85;3.45;;;;;;;23.65;36.89;94272.28;5052506;28;20566;-74
2023/07/09 11:38:48;;;;;;;5.78;2.25;;;;;;;23.56;36.73;94242.03;5052542;28;20125;-73
2023/07/09 11:41:37;;;;;;;3.83;2.55;;;;;;;23.60;35.87;94261.81;5052433;28;20151;-71